sensor_id;sensor_type;location;lat;lon;timestamp;pressure;altitude;pressure_sealevel;temperature;humidity
22440;BME280;11387;51.612;7.210;2023-04-25T00:01:04;100084.00;;;5.96;86.11
22440;BME280;11387;51.612;7.210;2023-04-25T00:03:33;100077.69;;;6.05;86.45
22440;BME280;11387;51.612;7.210;2023-04-25T00:06:02;100081.47;;;6.10;85.78
22440;BME280;11387;51.612;7.210;2023-04-25T00:08:30;100078.22;;;6.07;85.77
22440;BME280;11387;51.612;7.210;2023-04-25T00:10:59;100082.59;;;6.03;86.56
22440;BME280;11387;51.612;7.210;2023-04-25T00:13:27;100086.09;;;6.09;85.82
22440;BME280;11387;51.612;7.210;2023-04-25T00:15:56;100092.63;;;6.08;86.02
22440;BME280;11387;51.612;7.210;2023-04-25T00:18:25;100082.28;;;6.10;86.87
22440;BME280;11387;51.612;7.210;2023-04-25T00:20:56;100089.09;;;6.07;86.82
22440;BME280;11387;51.612;7.210;2023-04-25T00:23:25;100081.22;;;6.06;86.97
22440;BME280;11387;51.612;7.210;2023-04-25T00:25:53;100084.19;;;6.10;87.21
22440;BME280;11387;51.612;7.210;2023-04-25T00:28:22;100086.97;;;5.99;87.33
22440;BME280;11387;51.612;7.210;2023-04-25T00:30:51;100083.66;;;6.07;87.31
22440;BME280;11387;51.612;7.210;2023-04-25T00:33:19;100088.28;;;6.07;87.18
22440;BME280;11387;51.612;7.210;2023-04-25T00:35:48;100085.84;;;6.05;87.84
22440;BME280;11387;51.612;7.210;2023-04-25T00:38:17;100085.84;;;6.05;87.81
22440;BME280;11387;51.612;7.210;2023-04-25T00:40:45;100079.03;;;6.08;88.07
22440;BME280;11387;51.612;7.210;2023-04-25T00:43:13;100080.16;;;6.02;87.48
22440;BME280;11387;51.612;7.210;2023-04-25T00:45:42;100087.81;;;5.95;88.20
22440;BME280;11387;51.612;7.210;2023-04-25T00:48:11;100082.41;;;5.90;88.64
22440;BME280;11387;51.612;7.210;2023-04-25T00:50:41;100089.44;;;5.91;88.69
22440;BME280;11387;51.612;7.210;2023-04-25T00:53:10;100081.84;;;5.93;88.74
22440;BME280;11387;51.612;7.210;2023-04-25T00:55:40;100097.00;;;5.99;88.62
22440;BME280;11387;51.612;7.210;2023-04-25T00:58:08;100088.91;;;5.94;89.65
22440;BME280;11387;51.612;7.210;2023-04-25T01:00:36;100089.44;;;5.91;89.94
22440;BME280;11387;51.612;7.210;2023-04-25T01:03:05;100085.66;;;5.92;89.42
22440;BME280;11387;51.612;7.210;2023-04-25T01:05:33;100088.88;;;5.99;89.31
22440;BME280;11387;51.612;7.210;2023-04-25T01:08:01;100095.34;;;6.08;89.56
22440;BME280;11387;51.612;7.210;2023-04-25T01:10:30;100092.94;;;6.01;90.22
22440;BME280;11387;51.612;7.210;2023-04-25T01:12:59;100098.59;;;6.05;89.96
22440;BME280;11387;51.612;7.210;2023-04-25T01:15:28;100104.00;;;6.10;90.77
22440;BME280;11387;51.612;7.210;2023-04-25T01:17:56;100098.59;;;6.05;90.80
22440;BME280;11387;51.612;7.210;2023-04-25T01:20:25;100096.44;;;6.02;91.25
22440;BME280;11387;51.612;7.210;2023-04-25T01:22:56;100097.00;;;5.99;91.19
22440;BME280;11387;51.612;7.210;2023-04-25T01:25:24;100098.06;;;6.03;91.41
22440;BME280;11387;51.612;7.210;2023-04-25T01:27:53;100100.78;;;6.03;91.57
22440;BME280;11387;51.612;7.210;2023-04-25T01:30:21;100100.78;;;6.03;91.33
22440;BME280;11387;51.612;7.210;2023-04-25T01:32:50;100103.25;;;5.99;91.27
22440;BME280;11387;51.612;7.210;2023-04-25T01:35:19;100100.56;;;5.94;91.57
22440;BME280;11387;51.612;7.210;2023-04-25T01:37:47;100105.44;;;5.97;91.30
22440;BME280;11387;51.612;7.210;2023-04-25T01:40:17;100106.25;;;5.98;91.71
22440;BME280;11387;51.612;7.210;2023-04-25T01:42:45;100101.13;;;5.91;92.12
22440;BME280;11387;51.612;7.210;2023-04-25T01:45:14;100101.94;;;5.87;92.46
22440;BME280;11387;51.612;7.210;2023-04-25T01:47:42;100094.88;;;5.91;93.08
22440;BME280;11387;51.612;7.210;2023-04-25T01:50:14;100092.25;;;5.75;93.31
22440;BME280;11387;51.612;7.210;2023-04-25T01:52:43;100114.25;;;5.69;94.51
22440;BME280;11387;51.612;7.210;2023-04-25T01:55:11;100120.50;;;5.64;95.09
22440;BME280;11387;51.612;7.210;2023-04-25T01:57:40;100120.47;;;5.74;95.25
22440;BME280;11387;51.612;7.210;2023-04-25T02:00:09;100127.53;;;5.75;95.04
22440;BME280;11387;51.612;7.210;2023-04-25T02:02:37;100132.41;;;5.79;95.20
22440;BME280;11387;51.612;7.210;2023-04-25T02:05:06;100129.38;;;5.90;95.81
22440;BME280;11387;51.612;7.210;2023-04-25T02:07:35;100136.41;;;5.86;94.63
22440;BME280;11387;51.612;7.210;2023-04-25T02:10:03;100133.50;;;5.78;94.80
22440;BME280;11387;51.612;7.210;2023-04-25T02:12:32;100141.56;;;5.83;96.65
22440;BME280;11387;51.612;7.210;2023-04-25T02:15:01;100144.56;;;5.81;94.65
22440;BME280;11387;51.612;7.210;2023-04-25T02:17:44;100152.22;;;5.79;94.21
22440;BME280;11387;51.612;7.210;2023-04-25T02:20:13;100146.25;;;5.77;94.74
22440;BME280;11387;51.612;7.210;2023-04-25T02:22:42;100155.75;;;5.74;94.00
22440;BME280;11387;51.612;7.210;2023-04-25T02:25:11;100142.66;;;5.82;94.08
22440;BME280;11387;51.612;7.210;2023-04-25T02:27:40;100141.56;;;5.83;93.98
22440;BME280;11387;51.612;7.210;2023-04-25T02:30:09;100144.34;;;5.78;93.80
22440;BME280;11387;51.612;7.210;2023-04-25T02:32:52;100146.81;;;5.74;93.73
22440;BME280;11387;51.612;7.210;2023-04-25T02:35:21;100149.50;;;5.74;93.97
22440;BME280;11387;51.612;7.210;2023-04-25T02:37:49;100145.44;;;5.77;93.72
22440;BME280;11387;51.612;7.210;2023-04-25T02:40:17;100162.28;;;5.73;94.35
22440;BME280;11387;51.612;7.210;2023-04-25T02:42:46;100157.97;;;5.62;93.88
22440;BME280;11387;51.612;7.210;2023-04-25T02:45:15;100161.22;;;5.59;94.27
22440;BME280;11387;51.612;7.210;2023-04-25T02:47:43;100166.94;;;5.53;94.07
22440;BME280;11387;51.612;7.210;2023-04-25T02:50:12;100166.41;;;5.51;94.83
22440;BME280;11387;51.612;7.210;2023-04-25T02:52:40;100164.50;;;5.56;94.41
22440;BME280;11387;51.612;7.210;2023-04-25T02:55:08;100163.41;;;5.52;94.92
22440;BME280;11387;51.612;7.210;2023-04-25T02:57:37;100162.88;;;5.55;95.02
22440;BME280;11387;51.612;7.210;2023-04-25T03:00:06;100162.88;;;5.55;95.53
22440;BME280;11387;51.612;7.210;2023-04-25T03:02:50;100166.94;;;5.58;94.78
22440;BME280;11387;51.612;7.210;2023-04-25T03:05:19;100152.28;;;5.59;95.06
22440;BME280;11387;51.612;7.210;2023-04-25T03:07:47;100156.63;;;5.60;94.50
22440;BME280;11387;51.612;7.210;2023-04-25T03:10:16;100155.00;;;5.54;95.14
22440;BME280;11387;51.612;7.210;2023-04-25T03:12:48;100153.69;;;5.46;95.19
22440;BME280;11387;51.612;7.210;2023-04-25T03:15:17;100161.84;;;5.41;94.85
22440;BME280;11387;51.612;7.210;2023-04-25T03:17:45;100163.47;;;5.42;95.59
22440;BME280;11387;51.612;7.210;2023-04-25T03:20:15;100162.66;;;5.41;95.97
22440;BME280;11387;51.612;7.210;2023-04-25T03:22:43;100164.00;;;5.39;96.12
22440;BME280;11387;51.612;7.210;2023-04-25T03:25:12;100166.19;;;5.42;95.87
22440;BME280;11387;51.612;7.210;2023-04-25T03:27:40;100174.59;;;5.46;96.37
22440;BME280;11387;51.612;7.210;2023-04-25T03:30:09;100171.00;;;5.55;96.34
22440;BME280;11387;51.612;7.210;2023-04-25T03:32:37;100172.34;;;5.58;96.05
22440;BME280;11387;51.612;7.210;2023-04-25T03:35:06;100187.25;;;5.65;96.41
22440;BME280;11387;51.612;7.210;2023-04-25T03:37:36;100189.47;;;5.53;96.14
22440;BME280;11387;51.612;7.210;2023-04-25T03:40:05;100189.50;;;5.48;96.42
22440;BME280;11387;51.612;7.210;2023-04-25T03:42:33;100200.34;;;5.43;97.16
22440;BME280;11387;51.612;7.210;2023-04-25T03:45:02;100206.59;;;5.28;97.41
22440;BME280;11387;51.612;7.210;2023-04-25T03:47:30;100206.66;;;5.18;97.16
22440;BME280;11387;51.612;7.210;2023-04-25T03:49:58;100203.94;;;4.98;96.92
22440;BME280;11387;51.612;7.210;2023-04-25T03:52:28;100205.28;;;4.90;96.93
22440;BME280;11387;51.612;7.210;2023-04-25T03:54:58;100196.09;;;4.81;97.31
22440;BME280;11387;51.612;7.210;2023-04-25T03:57:26;100205.81;;;4.67;97.29
22440;BME280;11387;51.612;7.210;2023-04-25T03:59:56;100204.75;;;4.58;97.65
22440;BME280;11387;51.612;7.210;2023-04-25T04:02:24;100206.91;;;4.51;97.24
22440;BME280;11387;51.612;7.210;2023-04-25T04:04:53;100196.59;;;4.43;97.39
22440;BME280;11387;51.612;7.210;2023-04-25T04:07:28;100196.03;;;4.40;97.33
22440;BME280;11387;51.612;7.210;2023-04-25T04:09:58;100205.22;;;4.34;97.35
22440;BME280;11387;51.612;7.210;2023-04-25T04:12:28;100193.84;;;4.37;97.62
22440;BME280;11387;51.612;7.210;2023-04-25T04:14:59;100199.25;;;4.32;97.27
22440;BME280;11387;51.612;7.210;2023-04-25T04:17:30;100196.56;;;4.37;97.72
22440;BME280;11387;51.612;7.210;2023-04-25T04:19:58;100204.16;;;4.40;97.74
22440;BME280;11387;51.612;7.210;2023-04-25T04:22:27;100205.53;;;4.43;98.00
22440;BME280;11387;51.612;7.210;2023-04-25T04:24:58;100209.03;;;4.38;98.29
22440;BME280;11387;51.612;7.210;2023-04-25T04:27:29;100203.63;;;4.38;98.42
22440;BME280;11387;51.612;7.210;2023-04-25T04:29:57;100210.94;;;4.38;98.43
22440;BME280;11387;51.612;7.210;2023-04-25T04:32:26;100215.53;;;4.43;97.98
22440;BME280;11387;51.612;7.210;2023-04-25T04:34:54;100212.59;;;4.49;98.27
22440;BME280;11387;51.612;7.210;2023-04-25T04:37:23;100220.44;;;4.46;98.06
22440;BME280;11387;51.612;7.210;2023-04-25T04:39:51;100230.16;;;4.42;97.91
22440;BME280;11387;51.612;7.210;2023-04-25T04:42:21;100218.75;;;4.34;97.62
22440;BME280;11387;51.612;7.210;2023-04-25T04:44:51;100222.56;;;4.38;97.33
22440;BME280;11387;51.612;7.210;2023-04-25T04:47:21;100227.97;;;4.33;97.21
22440;BME280;11387;51.612;7.210;2023-04-25T04:49:51;100235.53;;;4.31;98.25
22440;BME280;11387;51.612;7.210;2023-04-25T04:52:21;100238.25;;;4.31;98.06
22440;BME280;11387;51.612;7.210;2023-04-25T04:54:51;100239.34;;;4.35;98.24
22440;BME280;11387;51.612;7.210;2023-04-25T04:57:19;100243.72;;;4.47;98.57
22440;BME280;11387;51.612;7.210;2023-04-25T04:59:50;100248.59;;;4.45;97.82
22440;BME280;11387;51.612;7.210;2023-04-25T05:02:24;100248.59;;;4.50;97.67
22440;BME280;11387;51.612;7.210;2023-04-25T05:04:53;100244.28;;;4.54;97.34
22440;BME280;11387;51.612;7.210;2023-04-25T05:07:21;100245.09;;;4.59;98.10
22440;BME280;11387;51.612;7.210;2023-04-25T05:09:50;100250.56;;;4.85;97.09
22440;BME280;11387;51.612;7.210;2023-04-25T05:12:18;100260.88;;;4.88;96.39
22440;BME280;11387;51.612;7.210;2023-04-25T05:14:48;100260.31;;;5.01;96.39
22440;BME280;11387;51.612;7.210;2023-04-25T05:17:42;100261.69;;;5.19;95.56
22440;BME280;11387;51.612;7.210;2023-04-25T05:20:10;100266.56;;;5.27;95.49
22440;BME280;11387;51.612;7.210;2023-04-25T05:22:38;100261.41;;;5.30;94.76
22440;BME280;11387;51.612;7.210;2023-04-25T05:25:08;100271.44;;;5.45;94.87
22440;BME280;11387;51.612;7.210;2023-04-25T05:27:37;100270.31;;;5.51;94.49
22440;BME280;11387;51.612;7.210;2023-04-25T05:30:06;100277.38;;;5.57;94.92
22440;BME280;11387;51.612;7.210;2023-04-25T05:32:37;100282.25;;;5.65;94.31
22440;BME280;11387;51.612;7.210;2023-04-25T05:35:09;100289.84;;;5.79;93.27
22440;BME280;11387;51.612;7.210;2023-04-25T05:37:38;100286.00;;;5.85;92.47
22440;BME280;11387;51.612;7.210;2023-04-25T05:40:09;100291.72;;;5.93;93.15
22440;BME280;11387;51.612;7.210;2023-04-25T05:42:39;100286.00;;;6.00;92.96
22440;BME280;11387;51.612;7.210;2023-04-25T05:45:08;100294.63;;;6.17;92.44
22440;BME280;11387;51.612;7.210;2023-04-25T05:47:36;100296.22;;;6.28;91.37
22440;BME280;11387;51.612;7.210;2023-04-25T05:50:05;100300.03;;;6.17;91.28
22440;BME280;11387;51.612;7.210;2023-04-25T05:52:50;100307.06;;;6.28;91.06
22440;BME280;11387;51.612;7.210;2023-04-25T05:55:18;100310.31;;;6.30;90.81
22440;BME280;11387;51.612;7.210;2023-04-25T05:57:47;100307.06;;;6.33;90.68
22440;BME280;11387;51.612;7.210;2023-04-25T06:00:18;100319.00;;;6.32;91.38
22440;BME280;11387;51.612;7.210;2023-04-25T06:02:46;100322.19;;;6.50;90.78
22440;BME280;11387;51.612;7.210;2023-04-25T06:05:15;100329.78;;;6.53;90.88
22440;BME280;11387;51.612;7.210;2023-04-25T06:07:43;100326.50;;;6.56;90.94
22440;BME280;11387;51.612;7.210;2023-04-25T06:10:13;100326.78;;;6.54;90.85
22440;BME280;11387;51.612;7.210;2023-04-25T06:12:42;100330.84;;;6.57;90.47
22440;BME280;11387;51.612;7.210;2023-04-25T06:15:10;100330.81;;;6.72;90.28
22440;BME280;11387;51.612;7.210;2023-04-25T06:17:54;100335.31;;;6.87;88.77
22440;BME280;11387;51.612;7.210;2023-04-25T06:20:23;100336.00;;;7.07;88.09
22440;BME280;11387;51.612;7.210;2023-04-25T06:22:51;100336.66;;;7.33;86.96
22440;BME280;11387;51.612;7.210;2023-04-25T06:25:21;100333.44;;;7.60;85.13
22440;BME280;11387;51.612;7.210;2023-04-25T06:27:52;100334.84;;;7.82;84.05
22440;BME280;11387;51.612;7.210;2023-04-25T06:30:20;100340.53;;;7.85;81.85
22440;BME280;11387;51.612;7.210;2023-04-25T06:32:52;100337.53;;;7.87;80.32
22440;BME280;11387;51.612;7.210;2023-04-25T06:35:21;100335.75;;;8.01;80.00
22440;BME280;11387;51.612;7.210;2023-04-25T06:37:52;100335.06;;;8.14;79.95
22440;BME280;11387;51.612;7.210;2023-04-25T06:40:21;100339.31;;;8.25;79.05
22440;BME280;11387;51.612;7.210;2023-04-25T06:42:50;100346.75;;;8.43;78.89
22440;BME280;11387;51.612;7.210;2023-04-25T06:45:18;100340.66;;;8.52;77.24
22440;BME280;11387;51.612;7.210;2023-04-25T06:47:46;100342.94;;;8.63;77.69
22440;BME280;11387;51.612;7.210;2023-04-25T06:50:15;100343.69;;;8.69;77.01
22440;BME280;11387;51.612;7.210;2023-04-25T06:52:43;100342.72;;;8.60;76.19
22440;BME280;11387;51.612;7.210;2023-04-25T06:55:11;100354.31;;;8.70;76.58
22440;BME280;11387;51.612;7.210;2023-04-25T06:57:41;100357.53;;;8.54;75.13
22440;BME280;11387;51.612;7.210;2023-04-25T07:00:10;100354.59;;;8.69;74.45
22440;BME280;11387;51.612;7.210;2023-04-25T07:02:38;100354.13;;;8.86;74.32
22440;BME280;11387;51.612;7.210;2023-04-25T07:05:09;100362.16;;;8.96;72.83
22440;BME280;11387;51.612;7.210;2023-04-25T07:07:37;100349.78;;;9.03;73.62
22440;BME280;11387;51.612;7.210;2023-04-25T07:10:06;100359.19;;;9.30;72.24
22440;BME280;11387;51.612;7.210;2023-04-25T07:12:34;100351.19;;;9.52;71.86
22440;BME280;11387;51.612;7.210;2023-04-25T07:15:05;100363.75;;;9.53;70.52
22440;BME280;11387;51.612;7.210;2023-04-25T07:17:35;100364.31;;;9.69;71.11
22440;BME280;11387;51.612;7.210;2023-04-25T07:20:03;100360.56;;;9.65;69.47
22440;BME280;11387;51.612;7.210;2023-04-25T07:22:32;100358.56;;;9.84;69.93
22440;BME280;11387;51.612;7.210;2023-04-25T07:25:01;100372.88;;;9.95;68.05
22440;BME280;11387;51.612;7.210;2023-04-25T07:27:31;100374.84;;;10.08;68.13
22440;BME280;11387;51.612;7.210;2023-04-25T07:29:59;100376.91;;;10.30;68.85
22440;BME280;11387;51.612;7.210;2023-04-25T07:32:29;100382.59;;;10.33;66.60
22440;BME280;11387;51.612;7.210;2023-04-25T07:34:57;100382.00;;;10.36;66.42
22440;BME280;11387;51.612;7.210;2023-04-25T07:37:25;100389.88;;;10.52;65.16
22440;BME280;11387;51.612;7.210;2023-04-25T07:39:54;100378.34;;;10.68;64.00
22440;BME280;11387;51.612;7.210;2023-04-25T07:42:22;100378.50;;;10.99;64.84
22440;BME280;11387;51.612;7.210;2023-04-25T07:44:51;100388.69;;;11.79;62.56
22440;BME280;11387;51.612;7.210;2023-04-25T07:47:19;100392.38;;;12.37;60.18
22440;BME280;11387;51.612;7.210;2023-04-25T07:49:49;100389.97;;;12.84;58.24
22440;BME280;11387;51.612;7.210;2023-04-25T07:52:17;100389.31;;;12.78;55.45
22440;BME280;11387;51.612;7.210;2023-04-25T07:54:46;100404.19;;;12.37;55.85
22440;BME280;11387;51.612;7.210;2023-04-25T07:57:14;100398.44;;;11.94;55.57
22440;BME280;11387;51.612;7.210;2023-04-25T07:59:44;100397.31;;;12.18;56.09
22440;BME280;11387;51.612;7.210;2023-04-25T08:02:12;100402.88;;;12.74;53.79
22440;BME280;11387;51.612;7.210;2023-04-25T08:04:40;100399.78;;;13.33;51.59
22440;BME280;11387;51.612;7.210;2023-04-25T08:07:10;100404.72;;;14.08;49.94
22440;BME280;11387;51.612;7.210;2023-04-25T08:09:39;100406.53;;;14.89;47.72
22440;BME280;11387;51.612;7.210;2023-04-25T08:12:07;100417.53;;;15.19;46.06
22440;BME280;11387;51.612;7.210;2023-04-25T08:14:35;100420.16;;;16.43;45.63
22440;BME280;11387;51.612;7.210;2023-04-25T08:17:04;100426.94;;;16.58;41.42
22440;BME280;11387;51.612;7.210;2023-04-25T08:19:33;100425.78;;;16.02;43.43
22440;BME280;11387;51.612;7.210;2023-04-25T08:22:01;100436.31;;;15.25;45.22
22440;BME280;11387;51.612;7.210;2023-04-25T08:24:31;100438.94;;;15.42;43.14
22440;BME280;11387;51.612;7.210;2023-04-25T08:26:59;100431.84;;;16.86;41.23
22440;BME280;11387;51.612;7.210;2023-04-25T08:29:27;100436.56;;;17.09;39.40
22440;BME280;11387;51.612;7.210;2023-04-25T08:31:56;100440.44;;;17.21;40.48
22440;BME280;11387;51.612;7.210;2023-04-25T08:34:38;100442.69;;;17.67;39.07
22440;BME280;11387;51.612;7.210;2023-04-25T08:37:09;100437.72;;;18.01;38.98
22440;BME280;11387;51.612;7.210;2023-04-25T08:39:39;100446.09;;;19.27;36.43
22440;BME280;11387;51.612;7.210;2023-04-25T08:42:07;100443.38;;;18.95;35.08
22440;BME280;11387;51.612;7.210;2023-04-25T08:44:36;100449.22;;;17.75;36.92
22440;BME280;11387;51.612;7.210;2023-04-25T08:47:04;100454.28;;;17.21;38.19
22440;BME280;11387;51.612;7.210;2023-04-25T08:49:33;100450.44;;;18.17;37.11
22440;BME280;11387;51.612;7.210;2023-04-25T08:52:03;100450.66;;;18.40;35.29
22440;BME280;11387;51.612;7.210;2023-04-25T08:54:32;100459.78;;;17.97;35.85
22440;BME280;11387;51.612;7.210;2023-04-25T08:57:05;100461.28;;;17.42;36.53
22440;BME280;11387;51.612;7.210;2023-04-25T08:59:36;100463.03;;;16.86;38.68
22440;BME280;11387;51.612;7.210;2023-04-25T09:02:05;100468.47;;;15.63;39.43
22440;BME280;11387;51.612;7.210;2023-04-25T09:04:36;100473.50;;;14.72;42.49
22440;BME280;11387;51.612;7.210;2023-04-25T09:07:04;100481.91;;;13.77;43.94
22440;BME280;11387;51.612;7.210;2023-04-25T09:09:32;100495.97;;;13.50;46.48
22440;BME280;11387;51.612;7.210;2023-04-25T09:12:01;100486.34;;;13.13;46.78
22440;BME280;11387;51.612;7.210;2023-04-25T09:14:31;100490.91;;;12.87;47.15
22440;BME280;11387;51.612;7.210;2023-04-25T09:17:00;100489.28;;;12.77;46.70
22440;BME280;11387;51.612;7.210;2023-04-25T09:19:29;100493.31;;;12.79;47.68
22440;BME280;11387;51.612;7.210;2023-04-25T09:22:07;100493.69;;;12.95;46.51
22440;BME280;11387;51.612;7.210;2023-04-25T09:24:36;100495.50;;;14.00;43.98
22440;BME280;11387;51.612;7.210;2023-04-25T09:27:05;100499.09;;;15.40;39.10
22440;BME280;11387;51.612;7.210;2023-04-25T09:29:35;100500.03;;;15.95;36.22
22440;BME280;11387;51.612;7.210;2023-04-25T09:32:11;100494.13;;;15.84;34.62
22440;BME280;11387;51.612;7.210;2023-04-25T09:34:41;100504.41;;;16.62;34.66
22440;BME280;11387;51.612;7.210;2023-04-25T09:37:09;100505.91;;;17.41;32.84
22440;BME280;11387;51.612;7.210;2023-04-25T09:39:38;100503.91;;;18.62;30.87
22440;BME280;11387;51.612;7.210;2023-04-25T09:42:07;100504.53;;;18.71;31.91
22440;BME280;11387;51.612;7.210;2023-04-25T09:44:38;100504.59;;;20.46;30.69
22440;BME280;11387;51.612;7.210;2023-04-25T09:47:10;100510.44;;;23.99;25.42
22440;BME280;11387;51.612;7.210;2023-04-25T09:49:40;100511.50;;;24.67;21.45
22440;BME280;11387;51.612;7.210;2023-04-25T09:52:13;100517.88;;;25.84;20.95
22440;BME280;11387;51.612;7.210;2023-04-25T09:54:50;100512.69;;;26.67;20.57
22440;BME280;11387;51.612;7.210;2023-04-25T09:57:22;100506.41;;;23.93;21.39
22440;BME280;11387;51.612;7.210;2023-04-25T09:59:52;100523.72;;;21.39;24.05
22440;BME280;11387;51.612;7.210;2023-04-25T10:02:22;100518.84;;;18.73;27.10
22440;BME280;11387;51.612;7.210;2023-04-25T10:04:51;100516.28;;;21.24;25.61
22440;BME280;11387;51.612;7.210;2023-04-25T10:07:23;100519.38;;;20.96;24.27
22440;BME280;11387;51.612;7.210;2023-04-25T10:09:54;100526.88;;;20.49;24.57
22440;BME280;11387;51.612;7.210;2023-04-25T10:12:23;100526.72;;;19.18;27.11
22440;BME280;11387;51.612;7.210;2023-04-25T10:14:53;100531.66;;;17.81;28.71
22440;BME280;11387;51.612;7.210;2023-04-25T10:17:51;100534.84;;;16.41;31.58
22440;BME280;11387;51.612;7.210;2023-04-25T10:20:19;100537.78;;;14.85;34.22
22440;BME280;11387;51.612;7.210;2023-04-25T10:22:47;100540.78;;;13.76;34.87
22440;BME280;11387;51.612;7.210;2023-04-25T10:25:21;100548.69;;;13.12;37.96
22440;BME280;11387;51.612;7.210;2023-04-25T10:27:50;100559.16;;;12.26;40.10
22440;BME280;11387;51.612;7.210;2023-04-25T10:30:25;100559.16;;;11.54;41.88
22440;BME280;11387;51.612;7.210;2023-04-25T10:32:54;100564.63;;;11.13;43.91
22440;BME280;11387;51.612;7.210;2023-04-25T10:35:24;100567.88;;;10.88;45.54
22440;BME280;11387;51.612;7.210;2023-04-25T10:38:05;100578.31;;;10.53;47.83
22440;BME280;11387;51.612;7.210;2023-04-25T10:40:33;100587.69;;;10.33;49.12
22440;BME280;11387;51.612;7.210;2023-04-25T10:45:55;100597.88;;;10.28;49.81
22440;BME280;11387;51.612;7.210;2023-04-25T10:48:26;100593.81;;;10.25;49.83
22440;BME280;11387;51.612;7.210;2023-04-25T10:51:06;100598.34;;;10.11;50.79
22440;BME280;11387;51.612;7.210;2023-04-25T10:53:34;100598.34;;;10.11;52.90
22440;BME280;11387;51.612;7.210;2023-04-25T10:56:09;100603.72;;;10.21;51.40
22440;BME280;11387;51.612;7.210;2023-04-25T10:58:42;100597.06;;;10.27;49.95
22440;BME280;11387;51.612;7.210;2023-04-25T11:01:13;100599.53;;;10.61;49.18
22440;BME280;11387;51.612;7.210;2023-04-25T11:03:42;100586.91;;;10.79;49.74
22440;BME280;11387;51.612;7.210;2023-04-25T11:06:15;100589.59;;;11.39;48.25
22440;BME280;11387;51.612;7.210;2023-04-25T11:08:48;100581.63;;;13.35;43.88
22440;BME280;11387;51.612;7.210;2023-04-25T11:11:17;100576.09;;;14.43;40.89
22440;BME280;11387;51.612;7.210;2023-04-25T11:13:47;100581.53;;;14.95;40.13
22440;BME280;11387;51.612;7.210;2023-04-25T11:16:17;100579.97;;;15.53;38.01
22440;BME280;11387;51.612;7.210;2023-04-25T11:18:56;100575.94;;;15.12;37.66
22440;BME280;11387;51.612;7.210;2023-04-25T11:21:30;100581.56;;;15.63;36.45
22440;BME280;11387;51.612;7.210;2023-04-25T11:23:59;100579.78;;;16.29;35.90
22440;BME280;11387;51.612;7.210;2023-04-25T11:26:28;100580.75;;;16.12;35.59
22440;BME280;11387;51.612;7.210;2023-04-25T11:28:58;100579.41;;;16.51;35.86
22440;BME280;11387;51.612;7.210;2023-04-25T11:31:29;100585.16;;;17.73;31.41
22440;BME280;11387;51.612;7.210;2023-04-25T11:33:57;100579.59;;;18.66;27.46
22440;BME280;11387;51.612;7.210;2023-04-25T11:36:26;100583.53;;;21.52;26.26
22440;BME280;11387;51.612;7.210;2023-04-25T11:38:54;100579.78;;;23.75;21.01
22440;BME280;11387;51.612;7.210;2023-04-25T11:41:22;100584.38;;;25.31;19.34
22440;BME280;11387;51.612;7.210;2023-04-25T11:43:52;100585.56;;;25.87;18.21
22440;BME280;11387;51.612;7.210;2023-04-25T11:46:21;100591.34;;;26.60;18.47
22440;BME280;11387;51.612;7.210;2023-04-25T11:48:51;100586.56;;;27.71;17.40
22440;BME280;11387;51.612;7.210;2023-04-25T11:51:23;100586.16;;;28.10;17.46
22440;BME280;11387;51.612;7.210;2023-04-25T11:53:52;100574.75;;;27.42;18.54
22440;BME280;11387;51.612;7.210;2023-04-25T11:56:20;100565.69;;;26.58;18.01
22440;BME280;11387;51.612;7.210;2023-04-25T11:58:55;100567.38;;;27.55;17.08
22440;BME280;11387;51.612;7.210;2023-04-25T12:01:27;100573.97;;;28.20;17.17
22440;BME280;11387;51.612;7.210;2023-04-25T12:04:13;100573.75;;;28.99;16.49
22440;BME280;11387;51.612;7.210;2023-04-25T12:06:42;100565.94;;;28.22;16.60
22440;BME280;11387;51.612;7.210;2023-04-25T12:09:11;100584.19;;;28.41;18.59
22440;BME280;11387;51.612;7.210;2023-04-25T12:11:40;100571.00;;;27.07;16.93
22440;BME280;11387;51.612;7.210;2023-04-25T12:14:09;100580.47;;;23.14;20.84
22440;BME280;11387;51.612;7.210;2023-04-25T12:16:41;100585.56;;;21.29;24.46
22440;BME280;11387;51.612;7.210;2023-04-25T12:19:13;100601.00;;;19.25;25.25
22440;BME280;11387;51.612;7.210;2023-04-25T12:21:43;100601.81;;;18.26;26.81
22440;BME280;11387;51.612;7.210;2023-04-25T12:24:24;100599.00;;;16.59;27.76
22440;BME280;11387;51.612;7.210;2023-04-25T12:26:58;100601.78;;;16.59;28.19
22440;BME280;11387;51.612;7.210;2023-04-25T12:29:27;100603.81;;;16.49;29.30
22440;BME280;11387;51.612;7.210;2023-04-25T12:32:08;100599.00;;;15.75;30.02
22440;BME280;11387;51.612;7.210;2023-04-25T12:34:36;100594.44;;;15.03;30.24
22440;BME280;11387;51.612;7.210;2023-04-25T12:37:06;100602.63;;;14.74;31.57
22440;BME280;11387;51.612;7.210;2023-04-25T12:39:34;100611.03;;;14.17;32.00
22440;BME280;11387;51.612;7.210;2023-04-25T12:42:02;100614.09;;;13.90;33.13
22440;BME280;11387;51.612;7.210;2023-04-25T12:44:35;100614.91;;;13.90;34.59
22440;BME280;11387;51.612;7.210;2023-04-25T12:47:04;100620.56;;;13.94;34.23
22440;BME280;11387;51.612;7.210;2023-04-25T12:49:32;100621.50;;;13.80;34.49
22440;BME280;11387;51.612;7.210;2023-04-25T12:52:00;100627.41;;;14.22;34.35
22440;BME280;11387;51.612;7.210;2023-04-25T12:54:30;100618.72;;;15.19;32.92
22440;BME280;11387;51.612;7.210;2023-04-25T12:56:58;100614.63;;;17.21;31.47
22440;BME280;11387;51.612;7.210;2023-04-25T12:59:29;100616.63;;;17.44;29.54
22440;BME280;11387;51.612;7.210;2023-04-25T13:01:58;100609.19;;;20.19;25.74
22440;BME280;11387;51.612;7.210;2023-04-25T13:04:26;100615.56;;;22.78;22.68
22440;BME280;11387;51.612;7.210;2023-04-25T13:06:55;100612.03;;;23.22;21.93
22440;BME280;11387;51.612;7.210;2023-04-25T13:09:23;100602.38;;;24.14;21.28
22440;BME280;11387;51.612;7.210;2023-04-25T13:11:53;100595.38;;;24.52;21.82